Time;durP1;ratioP1;P1;durP2;ratioP2;P2;SDS_P1;SDS_P2;PMS_P1;PMS_P2;Temp;Humidity;BMP_temperature;BMP_pressure;BME280_temperature;BME280_humidity;BME280_pressure;Samples;Min_cycle;Max_cycle;Signal;HPM_P1;HPM_P2
2024/03/26 07:21:15;;;;;;;3.90;1.92;;;;;;;;;;13008496;22;20039;-82
2024/03/26 07:26:37;;;;;;;;;;;;;;;;;;13006452;22;20060;-82
2024/03/26 07:43:50;;;;;;;4.07;2.08;;;;;;;;;;12829858;23;19997;-81
2024/03/26 07:49:56;;;;;;;5.57;4.05;;;;;;;;;;12710074;23;20028;-82
2024/03/26 08:06:04;;;;;;;4.22;1.75;;;;;;;;;;12684813;23;20002;-80
2024/03/26 08:11:05;;;;;;;3.05;1.98;;;;;;;;;;12846572;22;20007;-83
2024/03/26 08:16:09;;;;;;;;;;;;;;;;;;13005351;22;20000;-82
2024/03/26 08:21:10;;;;;;;4.82;2.83;;;;;;;;;;13005440;22;19941;-83
2024/03/26 08:26:11;;;;;;;;;;;;;;;;;;12977507;22;20000;-83
2024/03/26 08:31:14;;;;;;;5.78;2.85;;;;;;;;;;13005580;22;19966;-83
2024/03/26 08:36:22;;;;;;;6.15;2.83;;;;;;;;;;12978629;22;20004;-84
2024/03/26 08:41:26;;;;;;;3.50;2.20;;;;;;;;;;13003357;22;20004;-84
2024/03/26 08:46:33;;;;;;;3.75;2.00;;;;;;;;;;12977763;22;20018;-83
2024/03/26 08:51:40;;;;;;;4.75;2.58;;;;;;;;;;12971355;22;20086;-80
2024/03/26 08:56:41;;;;;;;5.28;3.05;;;;;;;;;;12973204;22;20083;-79
2024/03/26 09:01:58;;;;;;;6.05;2.75;;;;;;;;;;13002357;22;20123;-80
2024/03/26 09:07:03;;;;;;;5.55;2.97;;;;;;;;;;13006934;22;20079;-81
2024/03/26 09:12:09;;;;;;;7.80;3.42;;;;;;;;;;12930837;22;20079;-80
2024/03/26 09:17:31;;;;;;;7.65;3.10;;;;;;;;;;13024385;22;20008;-81
2024/03/26 09:22:33;;;;;;;4.00;2.60;;;;;;;;;;12945196;22;20004;-83
2024/03/26 09:27:38;;;;;;;;;;;;;;;;;;12979282;22;20003;-84
2024/03/26 09:32:41;;;;;;;4.65;2.53;;;;;;;;;;12976322;22;19914;-84
2024/03/26 09:37:45;;;;;;;7.95;2.50;;;;;;;;;;13008879;22;20110;-85
2024/03/26 09:42:52;;;;;;;4.72;2.72;;;;;;;;;;12955516;22;20058;-83
2024/03/26 09:48:10;;;;;;;4.60;2.50;;;;;;;;;;13007582;22;20448;-80
2024/03/26 09:53:37;;;;;;;6.05;3.20;;;;;;;;;;12971991;22;20024;-80
2024/03/26 09:59:03;;;;;;;4.57;2.60;;;;;;;;;;12979967;22;20016;-83
2024/03/26 10:04:36;;;;;;;3.60;2.42;;;;;;;;;;12981895;22;20031;-81
2024/03/26 10:10:03;;;;;;;8.32;3.10;;;;;;;;;;13007682;22;20023;-82
2024/03/26 10:15:26;;;;;;;6.15;2.72;;;;;;;;;;12983773;22;20004;-80
2024/03/26 10:20:30;;;;;;;6.03;2.97;;;;;;;;;;12984103;22;20010;-80
2024/03/26 10:25:32;;;;;;;6.50;3.53;;;;;;;;;;13012719;22;19999;-79
2024/03/26 10:30:33;;;;;;;;;;;;;;;;;;13013346;22;20003;-80
2024/03/26 10:35:35;;;;;;;3.80;1.50;;;;;;;;;;12986317;22;19906;-81
2024/03/26 10:40:44;;;;;;;6.00;1.90;;;;;;;;;;13003891;22;20087;-79
2024/03/26 10:45:45;;;;;;;3.25;1.60;;;;;;;;;;13017037;22;19996;-79
2024/03/26 10:50:46;;;;;;;10.38;1.50;;;;;;;;;;12988801;22;20061;-80
2024/03/26 10:55:49;;;;;;;8.30;1.58;;;;;;;;;;13004147;22;20000;-83
2024/03/26 11:00:51;;;;;;;3.22;1.55;;;;;;;;;;12976028;22;20003;-83
2024/03/26 11:05:54;;;;;;;4.82;1.70;;;;;;;;;;12972640;22;20004;-80
2024/03/26 11:11:02;;;;;;;4.93;1.90;;;;;;;;;;12997618;22;20063;-80
2024/03/26 11:16:34;;;;;;;3.67;1.60;;;;;;;;;;12997733;22;19996;-81
2024/03/26 11:21:48;;;;;;;3.22;1.75;;;;;;;;;;12994004;22;20075;-79
2024/03/26 11:26:51;;;;;;;4.32;2.05;;;;;;;;;;12974329;22;20027;-80
2024/03/26 11:31:58;;;;;;;5.07;2.67;;;;;;;;;;12973028;22;20010;-79
2024/03/26 11:37:06;;;;;;;5.00;1.80;;;;;;;;;;12999481;22;20000;-79
2024/03/26 11:42:13;;;;;;;5.15;2.00;;;;;;;;;;13002137;22;20006;-81
2024/03/26 11:47:56;;;;;;;4.35;2.15;;;;;;;;;;13008596;22;20000;-84
2024/03/26 11:53:10;;;;;;;4.72;1.65;;;;;;;;;;13002804;22;20004;-84
2024/03/26 11:58:18;;;;;;;4.72;1.77;;;;;;;;;;12989812;22;20310;-84
2024/03/26 12:03:22;;;;;;;2.97;1.38;;;;;;;;;;13015627;22;20003;-84
2024/03/26 12:08:29;;;;;;;3.25;1.95;;;;;;;;;;12975902;22;20030;-84
2024/03/26 12:13:39;;;;;;;4.88;1.80;;;;;;;;;;12976642;22;20046;-85
2024/03/26 12:18:41;;;;;;;6.45;2.05;;;;;;;;;;12977674;22;20042;-84
2024/03/26 12:23:43;;;;;;;3.00;1.63;;;;;;;;;;12978218;22;20015;-81
2024/03/26 12:28:44;;;;;;;;;;;;;;;;;;13004736;22;20007;-81
2024/03/26 12:33:46;;;;;;;4.80;2.00;;;;;;;;;;13006122;22;19925;-81
2024/03/26 12:38:49;;;;;;;5.47;1.88;;;;;;;;;;13007810;22;19987;-79
2024/03/26 12:43:52;;;;;;;4.70;2.20;;;;;;;;;;13008850;22;20022;-80
2024/03/26 12:48:53;;;;;;;4.57;2.15;;;;;;;;;;13005207;22;20004;-79
2024/03/26 12:54:01;;;;;;;5.00;1.90;;;;;;;;;;12939708;22;20016;-79
2024/03/26 12:59:03;;;;;;;3.53;1.70;;;;;;;;;;12913598;23;20004;-79
2024/03/26 13:04:04;;;;;;;2.42;1.40;;;;;;;;;;12938171;23;20070;-80
2024/03/26 13:09:06;;;;;;;;;;;;;;;;;;12908582;23;20402;-80
2024/03/26 13:14:07;;;;;;;4.55;2.30;;;;;;;;;;12923538;23;19929;-78
2024/03/26 13:19:08;;;;;;;;;;;;;;;;;;12923804;23;20000;-79
2024/03/26 13:24:09;;;;;;;4.22;1.98;;;;;;;;;;12943064;23;20293;-82
2024/03/26 13:29:10;;;;;;;;;;;;;;;;;;12915288;23;20008;-79
2024/03/26 13:34:11;;;;;;;4.40;1.63;;;;;;;;;;12941434;23;19927;-80
2024/03/26 13:39:13;;;;;;;;;;;;;;;;;;12913339;23;20004;-79
2024/03/26 13:44:14;;;;;;;5.50;1.52;;;;;;;;;;12920368;23;19908;-79
2024/03/26 13:49:15;;;;;;;;;;;;;;;;;;12939269;23;20023;-78
2024/03/26 13:54:16;;;;;;;3.45;1.73;;;;;;;;;;12940358;23;19923;-79
2024/03/26 13:59:17;;;;;;;;;;;;;;;;;;12930074;23;20004;-79
2024/03/26 14:04:18;;;;;;;4.32;1.63;;;;;;;;;;12920240;23;19906;-79
2024/03/26 14:09:19;;;;;;;;;;;;;;;;;;12942612;23;20392;-79
2024/03/26 14:14:20;;;;;;;3.78;1.55;;;;;;;;;;12911407;23;19900;-79
2024/03/26 14:19:21;;;;;;;3.65;1.52;;;;;;;;;;12912531;23;20011;-81
2024/03/26 14:24:22;;;;;;;;;;;;;;;;;;12923161;23;19988;-80
2024/03/26 14:29:26;;;;;;;4.13;1.50;;;;;;;;;;12924961;23;19908;-81
2024/03/26 14:34:31;;;;;;;4.15;1.60;;;;;;;;;;12937098;23;20366;-80
2024/03/26 14:39:33;;;;;;;6.47;2.20;;;;;;;;;;12909061;23;20004;-81
2024/03/26 14:44:34;;;;;;;3.83;1.60;;;;;;;;;;12909288;23;20027;-81
2024/03/26 14:49:35;;;;;;;4.70;1.60;;;;;;;;;;12933568;23;20048;-80
2024/03/26 14:54:36;;;;;;;5.15;1.92;;;;;;;;;;12935649;23;20012;-78
2024/03/26 14:59:37;;;;;;;4.03;1.90;;;;;;;;;;12919334;23;20016;-78
2024/03/26 15:04:38;;;;;;;;;;;;;;;;;;12947022;23;20000;-80
2024/03/26 15:09:40;;;;;;;3.92;2.40;;;;;;;;;;12968944;23;19935;-79
2024/03/26 15:14:44;;;;;;;4.35;1.55;;;;;;;;;;12960814;22;20085;-81
2024/03/26 15:19:45;;;;;;;3.95;1.73;;;;;;;;;;12913133;23;20004;-80
2024/03/26 15:24:46;;;;;;;;;;;;;;;;;;12916614;23;20004;-81
2024/03/26 15:35:11;;;;;;;6.93;2.95;;;;;;;;;;12882623;23;20008;-79
2024/03/26 15:40:12;;;;;;;;;;;;;;;;;;12916255;23;20004;-80
2024/03/26 15:45:13;;;;;;;5.00;1.85;;;;;;;;;;12911764;23;19969;-80
2024/03/26 15:50:14;;;;;;;4.22;1.80;;;;;;;;;;12911844;23;20039;-80
2024/03/26 15:55:15;;;;;;;6.30;3.47;;;;;;;;;;12917865;23;20004;-81
2024/03/26 16:00:16;;;;;;;;;;;;;;;;;;12915725;23;20064;-81
2024/03/26 16:05:17;;;;;;;5.03;3.10;;;;;;;;;;12911698;23;19934;-80
2024/03/26 16:10:18;;;;;;;;;;;;;;;;;;12913128;23;20094;-80
2024/03/26 16:15:19;;;;;;;14.63;9.35;;;;;;;;;;12912916;23;19927;-80
2024/03/26 16:20:20;;;;;;;6.97;2.05;;;;;;;;;;12912651;23;20004;-80
2024/03/26 16:25:21;;;;;;;;;;;;;;;;;;12914087;23;20080;-80
2024/03/26 16:30:22;;;;;;;3.95;1.67;;;;;;;;;;12914795;23;19899;-80
2024/03/26 16:35:24;;;;;;;3.90;1.85;;;;;;;;;;12937459;23;20006;-80
2024/03/26 16:40:26;;;;;;;3.78;1.60;;;;;;;;;;12936377;23;20007;-80
2024/03/26 16:45:27;;;;;;;2.67;1.52;;;;;;;;;;12922061;23;20082;-79
2024/03/26 16:50:28;;;;;;;5.28;2.53;;;;;;;;;;12933815;23;20011;-81
2024/03/26 16:55:29;;;;;;;4.63;1.90;;;;;;;;;;12918912;23;20035;-79
2024/03/26 17:00:30;;;;;;;3.05;1.70;;;;;;;;;;12908642;23;20004;-81
2024/03/26 17:05:33;;;;;;;4.95;2.55;;;;;;;;;;12915975;23;20000;-80
2024/03/26 17:10:34;;;;;;;3.22;1.88;;;;;;;;;;12936722;23;20000;-79
2024/03/26 17:15:35;;;;;;;7.43;2.45;;;;;;;;;;12934447;23;20004;-79
2024/03/26 17:20:36;;;;;;;5.38;2.00;;;;;;;;;;12922842;23;20000;-79
2024/03/26 17:25:37;;;;;;;5.82;1.90;;;;;;;;;;12910255;23;20000;-81
2024/03/26 17:30:38;;;;;;;4.75;2.20;;;;;;;;;;12938386;23;20032;-81
2024/03/26 17:35:41;;;;;;;3.92;2.35;;;;;;;;;;12948083;23;20011;-80
2024/03/26 17:40:42;;;;;;;6.90;2.10;;;;;;;;;;12917359;23;20083;-81
2024/03/26 17:45:43;;;;;;;6.53;3.00;;;;;;;;;;12938983;23;20009;-81
2024/03/26 17:50:44;;;;;;;5.90;2.70;;;;;;;;;;12937462;23;20012;-80
2024/03/26 17:55:45;;;;;;;3.70;2.30;;;;;;;;;;12909997;23;20074;-80
2024/03/26 18:00:46;;;;;;;4.90;2.10;;;;;;;;;;12938643;23;20050;-80
2024/03/26 18:05:47;;;;;;;4.57;2.03;;;;;;;;;;12934369;23;19997;-80
2024/03/26 18:10:58;;;;;;;3.70;2.00;;;;;;;;;;12933548;23;20027;-80
2024/03/26 18:16:01;;;;;;;3.05;1.55;;;;;;;;;;12933625;23;20000;-80
2024/03/26 18:21:06;;;;;;;4.88;2.70;;;;;;;;;;12932598;23;20001;-80
2024/03/26 18:26:07;;;;;;;3.50;2.30;;;;;;;;;;12906418;23;20034;-80
2024/03/26 18:31:09;;;;;;;4.63;2.90;;;;;;;;;;12931055;23;20004;-80
2024/03/26 18:36:10;;;;;;;3.50;2.20;;;;;;;;;;12904747;23;20069;-79
2024/03/26 18:41:11;;;;;;;4.05;2.35;;;;;;;;;;12931613;23;20062;-80
2024/03/26 18:46:13;;;;;;;4.22;2.03;;;;;;;;;;12931718;23;20027;-79
2024/03/26 18:51:14;;;;;;;4.85;2.55;;;;;;;;;;12931301;22;20031;-81
2024/03/26 18:56:15;;;;;;;4.75;2.70;;;;;;;;;;12911390;23;20000;-82
2024/03/26 19:01:16;;;;;;;7.78;3.40;;;;;;;;;;12911389;23;20008;-82
2024/03/26 19:06:17;;;;;;;3.80;2.70;;;;;;;;;;12909180;23;20023;-82
2024/03/26 19:11:47;;;;;;;6.35;4.85;;;;;;;;;;12903194;23;20005;-82
2024/03/26 19:16:55;;;;;;;5.17;2.87;;;;;;;;;;12883993;23;20015;-82
2024/03/26 19:21:56;;;;;;;3.55;2.30;;;;;;;;;;12910088;23;20413;-82
2024/03/26 19:26:57;;;;;;;4.50;2.38;;;;;;;;;;12907136;23;20004;-81
2024/03/26 19:31:59;;;;;;;5.45;3.25;;;;;;;;;;12912095;23;20004;-82
2024/03/26 19:37:02;;;;;;;3.63;2.22;;;;;;;;;;12896298;23;20009;-85
2024/03/26 19:42:05;;;;;;;6.53;2.88;;;;;;;;;;12897679;23;20012;-83
2024/03/26 19:47:06;;;;;;;3.78;2.78;;;;;;;;;;12917989;23;20007;-85
2024/03/26 19:52:08;;;;;;;3.30;2.40;;;;;;;;;;12946331;23;20008;-84
2024/03/26 19:57:09;;;;;;;4.28;2.80;;;;;;;;;;12950514;23;20000;-84
2024/03/26 20:02:10;;;;;;;4.32;2.72;;;;;;;;;;12919427;23;20003;-84
